createdAt,value
2019-03-31T00:01:34.389Z,67.32
2019-03-31T00:04:06.387Z,67.67
2019-03-31T00:06:37.443Z,68.47
2019-03-31T00:09:08.575Z,68.79
2019-03-31T00:11:39.678Z,69.24
2019-03-31T00:14:11.744Z,69.41
2019-03-31T00:16:44.641Z,69.75
2019-03-31T00:19:15.751Z,70.69
2019-03-31T00:21:46.773Z,70.79
2019-03-31T00:24:17.818Z,70.90
2019-03-31T00:26:48.825Z,70.85
2019-03-31T00:29:19.873Z,70.71
2019-03-31T00:31:50.785Z,70.52
2019-03-31T00:34:21.824Z,70.40
2019-03-31T00:36:52.836Z,70.23
2019-03-31T00:39:23.755Z,70.27
2019-03-31T00:41:54.652Z,70.10
2019-03-31T00:44:25.596Z,69.74
2019-03-31T00:46:56.524Z,68.95
2019-03-31T00:49:27.646Z,68.90
2019-03-31T00:51:58.634Z,68.61
2019-03-31T00:54:29.665Z,68.74
2019-03-31T00:57:00.665Z,69.21
2019-03-31T00:59:31.697Z,69.58
2019-03-31T01:02:05.357Z,69.53
2019-03-31T01:04:36.458Z,69.76
2019-03-31T01:07:07.850Z,69.77
2019-03-31T01:09:38.932Z,69.88
2019-03-31T01:12:09.935Z,69.93
2019-03-31T01:14:40.910Z,70.03
2019-03-31T01:17:13.419Z,69.81
2019-03-31T01:19:44.542Z,69.82
2019-03-31T01:22:15.454Z,69.89
2019-03-31T01:24:46.476Z,70.01
2019-03-31T01:27:17.617Z,70.68
2019-03-31T01:29:49.023Z,71.25
2019-03-31T01:32:20.379Z,71.22
2019-03-31T01:34:51.387Z,71.60
2019-03-31T01:37:24.005Z,71.83
2019-03-31T01:39:56.774Z,72.02
2019-03-31T01:42:27.789Z,71.92
2019-03-31T01:44:58.791Z,72.01
2019-03-31T01:47:29.853Z,72.18
2019-03-31T01:50:00.894Z,71.96
2019-03-31T01:52:33.427Z,71.93
2019-03-31T01:55:05.726Z,72.19
2019-03-31T01:57:36.610Z,72.62
2019-03-31T02:00:10.564Z,72.61
2019-03-31T02:02:41.553Z,72.30
2019-03-31T02:05:12.710Z,72.25
2019-03-31T02:07:43.757Z,72.11
2019-03-31T02:10:14.767Z,72.28
2019-03-31T02:12:45.671Z,72.30
2019-03-31T02:15:16.655Z,72.42
2019-03-31T02:17:48.454Z,73.25
2019-03-31T02:20:19.536Z,73.54
2019-03-31T02:22:50.532Z,73.64
2019-03-31T02:25:21.537Z,74.10
2019-03-31T02:27:54.127Z,74.73
2019-03-31T02:30:25.292Z,75.06
2019-03-31T02:32:56.205Z,75.25
2019-03-31T02:35:27.140Z,74.96
2019-03-31T02:37:58.080Z,74.45
2019-03-31T02:40:29.107Z,74.21
2019-03-31T02:43:00.028Z,74.04
2019-03-31T02:45:31.202Z,74.02
2019-03-31T02:48:02.105Z,74.00
2019-03-31T02:50:39.026Z,74.17
2019-03-31T02:53:10.101Z,74.38
2019-03-31T02:55:41.102Z,74.41
2019-03-31T02:58:14.316Z,74.41
2019-03-31T03:00:45.503Z,74.60
2019-03-31T03:03:17.235Z,74.62
2019-03-31T03:05:49.804Z,74.56
2019-03-31T03:08:21.903Z,74.65
2019-03-31T03:10:52.868Z,74.69
2019-03-31T03:13:24.830Z,74.99
2019-03-31T03:16:02.980Z,75.31
2019-03-31T03:18:34.756Z,75.57
2019-03-31T03:21:06.018Z,76.19
2019-03-31T03:23:36.962Z,76.36
2019-03-31T03:26:08.006Z,76.46
2019-03-31T03:28:39.176Z,76.65
2019-03-31T03:31:15.201Z,76.55
2019-03-31T03:33:42.908Z,76.44
2019-03-31T03:36:14.023Z,76.54
2019-03-31T03:38:45.030Z,76.77
2019-03-31T03:41:15.978Z,76.56
2019-03-31T03:43:55.672Z,76.18
2019-03-31T03:46:19.688Z,76.29
2019-03-31T03:48:50.746Z,76.46
2019-03-31T03:51:21.681Z,76.42
2019-03-31T03:53:52.630Z,76.26
2019-03-31T03:56:23.560Z,76.12
2019-03-31T03:58:54.473Z,76.29
2019-03-31T04:01:26.830Z,76.41
2019-03-31T04:03:57.798Z,76.35
2019-03-31T04:06:28.772Z,76.61
2019-03-31T04:08:59.755Z,76.61
2019-03-31T04:11:30.735Z,76.69
2019-03-31T04:14:01.680Z,76.74
2019-03-31T04:16:32.592Z,76.26
2019-03-31T04:19:04.409Z,75.93
2019-03-31T04:21:35.438Z,75.78
2019-03-31T04:24:06.428Z,75.62
2019-03-31T04:26:37.656Z,75.49
2019-03-31T04:29:08.766Z,75.40
2019-03-31T04:31:39.875Z,75.32
2019-03-31T04:34:10.794Z,75.37
2019-03-31T04:36:41.750Z,75.90
2019-03-31T04:39:12.676Z,75.06
2019-03-31T04:41:43.658Z,75.13
2019-03-31T04:44:14.616Z,75.07
2019-03-31T04:46:45.590Z,74.97
2019-03-31T04:49:16.508Z,74.11
2019-03-31T04:51:47.468Z,73.66
2019-03-31T04:54:18.393Z,73.08
2019-03-31T04:56:49.426Z,72.61
2019-03-31T04:59:20.350Z,72.50
2019-03-31T05:01:51.419Z,71.92
2019-03-31T05:04:22.336Z,72.25
2019-03-31T05:06:53.290Z,71.57
2019-03-31T05:09:24.231Z,71.20
2019-03-31T05:11:55.192Z,70.53
2019-03-31T05:14:27.184Z,70.19
2019-03-31T05:16:58.351Z,69.80
2019-03-31T05:19:30.193Z,69.92
2019-03-31T05:22:01.669Z,69.53
2019-03-31T05:24:33.731Z,68.54
2019-03-31T05:27:04.697Z,67.82
2019-03-31T05:29:35.618Z,67.50
2019-03-31T05:32:06.598Z,67.98
2019-03-31T05:34:37.663Z,68.00
2019-03-31T05:37:08.602Z,68.26
2019-03-31T05:39:39.592Z,68.34
2019-03-31T05:42:10.543Z,68.00
2019-03-31T05:44:41.524Z,67.29
2019-03-31T05:47:12.512Z,65.05
2019-03-31T05:49:43.462Z,64.10
2019-03-31T05:52:14.505Z,64.50
2019-03-31T05:54:45.523Z,64.71
2019-03-31T05:57:16.469Z,64.48
2019-03-31T05:59:47.378Z,64.31
2019-03-31T06:02:18.327Z,64.43
2019-03-31T06:04:49.240Z,64.08
2019-03-31T06:07:20.212Z,63.39
2019-03-31T06:09:51.105Z,63.35
2019-03-31T06:12:22.063Z,62.67
2019-03-31T06:14:52.965Z,62.24
2019-03-31T06:17:24.065Z,61.13
2019-03-31T06:19:55.765Z,60.91
2019-03-31T06:22:26.867Z,60.12
2019-03-31T06:24:57.782Z,60.48
2019-03-31T06:27:28.936Z,60.51
2019-03-31T06:29:59.855Z,60.59
2019-03-31T06:32:30.874Z,59.78
2019-03-31T06:35:01.802Z,59.39
2019-03-31T06:37:32.843Z,58.73
2019-03-31T06:40:05.063Z,58.85
2019-03-31T06:42:36.024Z,58.76
2019-03-31T06:45:07.218Z,58.50
2019-03-31T06:47:38.181Z,57.71
2019-03-31T06:50:10.747Z,57.37
2019-03-31T06:52:41.694Z,56.88
2019-03-31T06:55:12.686Z,56.34
2019-03-31T06:57:43.717Z,56.17
2019-03-31T07:00:14.726Z,55.71
2019-03-31T07:02:47.267Z,55.10
2019-03-31T07:05:18.220Z,55.14
2019-03-31T07:07:49.405Z,54.64
2019-03-31T07:10:20.436Z,54.34
2019-03-31T07:12:51.477Z,54.10
2019-03-31T07:15:22.502Z,53.31
2019-03-31T07:17:54.058Z,53.44
2019-03-31T07:20:26.500Z,52.44
2019-03-31T07:22:57.687Z,52.43
2019-03-31T07:25:28.824Z,52.21
2019-03-31T07:28:00.040Z,51.50
2019-03-31T07:30:31.114Z,51.30
2019-03-31T07:33:02.483Z,50.88
2019-03-31T07:35:38.850Z,50.66
2019-03-31T07:38:08.802Z,50.19
2019-03-31T07:40:39.766Z,50.11
2019-03-31T07:43:11.299Z,49.90
2019-03-31T07:45:42.628Z,49.80
2019-03-31T07:48:13.710Z,49.24
2019-03-31T07:50:46.363Z,49.94
2019-03-31T07:53:18.872Z,49.73
2019-03-31T07:55:49.851Z,49.29
2019-03-31T07:58:20.825Z,49.21
2019-03-31T08:00:51.812Z,48.54
2019-03-31T08:03:23.047Z,48.62
2019-03-31T08:05:54.043Z,48.20
2019-03-31T08:08:25.088Z,47.72
2019-03-31T08:10:56.008Z,46.97
2019-03-31T08:13:26.937Z,46.63
2019-03-31T08:15:57.893Z,45.77
2019-03-31T08:18:28.854Z,44.67
2019-03-31T08:21:00.772Z,44.27
2019-03-31T08:23:31.936Z,44.05
2019-03-31T08:26:03.331Z,43.96
2019-03-31T08:28:36.188Z,44.24
2019-03-31T08:31:07.197Z,44.10
2019-03-31T08:33:38.235Z,43.07
2019-03-31T08:36:11.895Z,42.93
2019-03-31T08:38:42.926Z,42.85
2019-03-31T08:41:13.870Z,43.37
2019-03-31T08:43:46.398Z,43.10
2019-03-31T08:46:17.562Z,43.37
2019-03-31T08:48:48.545Z,43.21
2019-03-31T08:51:19.453Z,43.28
2019-03-31T08:53:50.463Z,42.95
2019-03-31T08:56:21.448Z,42.57
2019-03-31T08:58:52.458Z,42.52
2019-03-31T09:01:26.424Z,42.16
2019-03-31T09:03:57.365Z,41.84
2019-03-31T09:06:28.350Z,41.69
2019-03-31T09:08:59.416Z,41.70
2019-03-31T09:11:31.886Z,41.21
2019-03-31T09:14:03.038Z,41.18
2019-03-31T09:16:33.970Z,41.23
2019-03-31T09:19:05.981Z,41.01
2019-03-31T09:21:37.837Z,40.82
2019-03-31T09:24:08.936Z,41.00
2019-03-31T09:26:39.972Z,40.90
2019-03-31T09:29:10.976Z,39.93
2019-03-31T09:31:41.900Z,39.32
2019-03-31T09:34:12.915Z,39.60
2019-03-31T09:36:44.016Z,39.34
2019-03-31T09:39:15.040Z,39.05
2019-03-31T09:41:45.961Z,38.96
2019-03-31T09:44:16.908Z,39.08
2019-03-31T09:46:47.837Z,38.59
2019-03-31T09:49:18.772Z,37.93
2019-03-31T09:51:49.700Z,37.79
2019-03-31T09:54:20.694Z,37.66
2019-03-31T09:56:51.729Z,37.15
2019-03-31T09:59:22.614Z,37.87
2019-03-31T10:01:53.555Z,37.51
2019-03-31T10:04:24.467Z,37.82
2019-03-31T10:06:55.437Z,38.54
2019-03-31T10:09:26.473Z,38.33
2019-03-31T10:11:57.460Z,37.62
2019-03-31T10:14:28.702Z,36.97
2019-03-31T10:16:59.599Z,36.15
2019-03-31T10:19:30.613Z,36.98
2019-03-31T10:22:02.446Z,36.60
2019-03-31T10:24:33.605Z,36.20
2019-03-31T10:27:04.544Z,36.06
2019-03-31T10:29:35.540Z,35.49
2019-03-31T10:32:06.518Z,35.85
2019-03-31T10:34:37.461Z,36.68
2019-03-31T10:37:08.352Z,36.21
2019-03-31T10:39:39.329Z,36.45
2019-03-31T10:42:10.022Z,36.76
2019-03-31T10:44:41.088Z,37.91
2019-03-31T10:47:12.075Z,37.36
2019-03-31T10:49:43.039Z,36.95
2019-03-31T10:52:13.979Z,36.98
2019-03-31T10:54:44.959Z,38.81
2019-03-31T10:57:16.042Z,37.05
2019-03-31T10:59:48.124Z,35.66
2019-03-31T11:02:19.170Z,35.05
2019-03-31T11:04:50.276Z,35.34
2019-03-31T11:07:21.194Z,34.91
2019-03-31T11:09:52.128Z,34.79
2019-03-31T11:12:23.125Z,35.69
2019-03-31T11:14:54.062Z,35.21
2019-03-31T11:17:25.277Z,34.70
2019-03-31T11:19:56.441Z,34.38
2019-03-31T11:22:41.834Z,34.27
2019-03-31T11:25:21.091Z,32.86
2019-03-31T11:27:47.612Z,33.23
2019-03-31T11:30:18.702Z,31.88
2019-03-31T11:32:49.751Z,32.84
2019-03-31T11:35:20.887Z,32.01
2019-03-31T11:37:51.876Z,32.10
2019-03-31T11:40:22.947Z,30.94
2019-03-31T11:42:55.739Z,30.85
2019-03-31T11:45:26.708Z,30.85
2019-03-31T11:47:57.631Z,31.54
2019-03-31T11:50:28.630Z,29.86
2019-03-31T11:52:59.750Z,30.30
2019-03-31T11:55:30.895Z,29.87
2019-03-31T11:58:01.884Z,29.36
2019-03-31T12:00:34.468Z,29.51
2019-03-31T12:03:05.487Z,29.12
2019-03-31T12:05:36.634Z,28.72
2019-03-31T12:08:07.693Z,28.29
2019-03-31T12:10:38.712Z,28.39
2019-03-31T12:13:09.785Z,28.89
2019-03-31T12:15:40.846Z,28.44
2019-03-31T12:18:11.829Z,28.92
2019-03-31T12:20:42.796Z,29.15
2019-03-31T12:23:14.627Z,29.15
2019-03-31T12:25:46.808Z,28.69
2019-03-31T12:28:17.820Z,29.10
2019-03-31T12:30:48.778Z,29.23
2019-03-31T12:33:19.690Z,29.30
2019-03-31T12:35:51.716Z,29.10
2019-03-31T12:38:23.754Z,29.15
2019-03-31T12:40:54.885Z,28.46
2019-03-31T12:43:25.827Z,28.01
2019-03-31T12:45:57.080Z,27.96
2019-03-31T12:48:31.457Z,28.10
2019-03-31T12:51:00.952Z,27.92
2019-03-31T12:53:31.968Z,27.88
2019-03-31T12:56:03.022Z,27.48
2019-03-31T12:58:33.996Z,27.51
2019-03-31T13:01:04.940Z,27.56
2019-03-31T13:03:35.890Z,27.66
2019-03-31T13:06:06.975Z,27.95
2019-03-31T13:08:37.900Z,27.86
2019-03-31T13:11:13.904Z,27.90
2019-03-31T13:13:45.603Z,27.97
2019-03-31T13:16:16.637Z,27.83
2019-03-31T13:18:47.544Z,27.44
2019-03-31T13:21:18.520Z,27.77
2019-03-31T13:23:52.022Z,27.52
2019-03-31T13:26:24.728Z,27.26
2019-03-31T13:28:55.700Z,27.47
2019-03-31T13:31:28.563Z,27.70
2019-03-31T13:33:59.606Z,28.17
2019-03-31T13:36:30.616Z,28.18
2019-03-31T13:39:06.676Z,28.12
2019-03-31T13:41:42.429Z,27.96
2019-03-31T13:44:13.450Z,27.88
2019-03-31T13:46:44.579Z,27.06
2019-03-31T13:49:17.145Z,27.22
2019-03-31T13:51:52.024Z,27.47
2019-03-31T13:54:23.265Z,27.64
2019-03-31T13:56:56.447Z,27.61
2019-03-31T13:59:27.841Z,27.46
2019-03-31T14:02:00.402Z,27.28
2019-03-31T14:04:35.309Z,27.61
2019-03-31T14:07:05.499Z,27.26
2019-03-31T14:09:39.717Z,27.26
2019-03-31T14:12:10.692Z,27.11
2019-03-31T14:14:41.710Z,26.95
2019-03-31T14:17:12.917Z,27.24
2019-03-31T14:19:44.001Z,27.42
2019-03-31T14:22:14.937Z,27.43
2019-03-31T14:24:46.885Z,27.58
2019-03-31T14:27:17.979Z,27.52
2019-03-31T14:29:48.930Z,27.54
2019-03-31T14:32:20.209Z,27.43
2019-03-31T14:34:51.128Z,27.63
2019-03-31T14:37:22.154Z,27.46
2019-03-31T14:39:53.122Z,27.58
2019-03-31T14:42:24.155Z,27.54
2019-03-31T14:44:55.130Z,27.42
2019-03-31T14:47:26.285Z,27.65
2019-03-31T14:49:57.189Z,27.56
2019-03-31T14:52:29.669Z,27.23
2019-03-31T14:55:00.763Z,27.63
2019-03-31T14:57:32.846Z,27.76
2019-03-31T15:00:14.527Z,28.03
2019-03-31T15:02:40.498Z,27.97
2019-03-31T15:05:11.460Z,27.87
2019-03-31T15:07:42.443Z,27.96
2019-03-31T15:10:13.375Z,27.92
2019-03-31T15:12:46.119Z,27.99
2019-03-31T15:15:17.193Z,27.72
2019-03-31T15:17:48.235Z,27.71
2019-03-31T15:20:19.251Z,28.13
2019-03-31T15:22:51.560Z,28.49
2019-03-31T15:25:23.485Z,29.27
2019-03-31T15:27:54.543Z,29.56
2019-03-31T15:30:25.572Z,29.90
2019-03-31T15:32:56.661Z,30.14
2019-03-31T15:35:27.752Z,30.53
2019-03-31T15:37:58.822Z,30.80
2019-03-31T15:40:29.816Z,31.14
2019-03-31T15:43:00.825Z,31.30
2019-03-31T15:45:31.771Z,31.49
2019-03-31T15:48:02.780Z,31.60
2019-03-31T15:50:33.696Z,31.95
2019-03-31T15:53:04.777Z,32.19
2019-03-31T15:55:35.684Z,32.23
2019-03-31T15:58:07.545Z,32.55
2019-03-31T16:00:38.574Z,32.55
2019-03-31T16:03:09.744Z,32.79
2019-03-31T16:05:40.748Z,33.00
2019-03-31T16:08:11.848Z,33.67
2019-03-31T16:10:42.769Z,33.15
2019-03-31T16:13:13.814Z,33.34
2019-03-31T16:15:46.613Z,33.21
2019-03-31T16:18:17.712Z,33.79
2019-03-31T16:20:48.681Z,33.75
2019-03-31T16:23:21.527Z,33.43
2019-03-31T16:26:05.605Z,33.80
2019-03-31T16:28:36.609Z,33.72
2019-03-31T16:31:07.634Z,34.00
2019-03-31T16:33:38.593Z,34.05
2019-03-31T16:36:11.876Z,34.31
2019-03-31T16:38:42.898Z,34.14
2019-03-31T16:41:13.923Z,34.40
2019-03-31T16:43:44.863Z,34.31
2019-03-31T16:46:15.894Z,34.46
2019-03-31T16:48:46.919Z,34.66
2019-03-31T16:51:18.001Z,34.81
2019-03-31T16:53:49.014Z,34.82
2019-03-31T16:56:20.032Z,35.08
2019-03-31T16:58:50.977Z,35.19
2019-03-31T17:01:21.995Z,35.11
2019-03-31T17:03:53.079Z,35.19
2019-03-31T17:06:24.996Z,35.42
2019-03-31T17:08:56.085Z,35.52
2019-03-31T17:11:27.067Z,35.76
2019-03-31T17:13:58.049Z,35.95
2019-03-31T17:16:29.123Z,35.83
2019-03-31T17:19:00.176Z,35.95
2019-03-31T17:21:31.107Z,35.87
2019-03-31T17:24:02.073Z,35.98
2019-03-31T17:26:34.037Z,35.77
2019-03-31T17:29:07.722Z,35.93
2019-03-31T17:31:40.350Z,36.07
2019-03-31T17:34:13.279Z,36.14
2019-03-31T17:36:46.014Z,36.34
2019-03-31T17:39:24.771Z,36.32
2019-03-31T17:41:54.280Z,36.21
2019-03-31T17:44:26.259Z,36.34
2019-03-31T17:46:56.984Z,36.40
2019-03-31T17:49:28.067Z,36.54
2019-03-31T17:52:02.873Z,36.56
2019-03-31T17:54:41.266Z,36.53
2019-03-31T17:57:12.190Z,36.52
2019-03-31T17:59:43.233Z,36.63
2019-03-31T18:02:16.948Z,36.64
2019-03-31T18:04:47.939Z,36.53
2019-03-31T18:07:18.851Z,36.42
2019-03-31T18:09:49.901Z,36.16
2019-03-31T18:12:20.839Z,36.30
2019-03-31T18:14:51.919Z,36.01
2019-03-31T18:17:22.870Z,36.14
2019-03-31T18:19:53.954Z,36.03
2019-03-31T18:22:25.021Z,35.96
2019-03-31T18:24:55.958Z,35.93
2019-03-31T18:27:27.894Z,35.94
2019-03-31T18:29:58.935Z,35.93
2019-03-31T18:32:30.289Z,35.90
2019-03-31T18:35:01.344Z,35.87
2019-03-31T18:37:34.047Z,35.75
2019-03-31T18:40:07.574Z,35.46
2019-03-31T18:42:38.141Z,35.71
2019-03-31T18:45:08.881Z,35.67
2019-03-31T18:47:39.861Z,35.53
2019-03-31T18:50:10.880Z,35.76
2019-03-31T18:52:41.882Z,35.74
2019-03-31T18:55:20.420Z,35.80
2019-03-31T18:58:06.417Z,35.73
2019-03-31T19:00:39.056Z,35.80
2019-03-31T19:03:17.757Z,35.91
2019-03-31T19:06:06.555Z,36.04
2019-03-31T19:08:46.545Z,36.55
2019-03-31T19:11:24.860Z,36.49
2019-03-31T19:14:13.838Z,36.36
2019-03-31T19:17:02.358Z,36.57
2019-03-31T19:19:44.137Z,37.16
2019-03-31T19:22:25.605Z,37.26
2019-03-31T19:24:58.230Z,37.10
2019-03-31T19:27:35.804Z,37.29
2019-03-31T19:30:08.509Z,37.05
2019-03-31T19:33:00.840Z,37.03
2019-03-31T19:35:49.903Z,37.01
2019-03-31T19:38:39.090Z,39.12
2019-03-31T19:41:17.620Z,37.92
2019-03-31T19:44:07.739Z,37.93
2019-03-31T19:46:40.380Z,37.66
2019-03-31T19:49:13.416Z,37.76
2019-03-31T19:51:46.089Z,38.01
2019-03-31T19:54:21.934Z,37.76
2019-03-31T19:56:59.330Z,37.69
2019-03-31T19:59:43.699Z,37.84
2019-03-31T20:02:19.430Z,37.92
2019-03-31T20:05:07.045Z,38.37
2019-03-31T20:07:40.013Z,38.10
2019-03-31T20:10:29.945Z,38.51
2019-03-31T20:13:19.062Z,39.64
2019-03-31T20:16:08.680Z,38.86
2019-03-31T20:18:44.161Z,39.02
2019-03-31T20:21:31.041Z,39.65
2019-03-31T20:24:08.063Z,39.58
2019-03-31T20:26:55.849Z,39.36
2019-03-31T20:29:32.988Z,39.54
2019-03-31T20:32:06.119Z,39.38
2019-03-31T20:34:42.194Z,39.12
2019-03-31T20:37:16.627Z,39.20
2019-03-31T20:40:11.459Z,39.80
2019-03-31T20:42:57.527Z,39.66
2019-03-31T20:45:34.071Z,39.51
2019-03-31T20:48:05.222Z,38.99
2019-03-31T20:50:38.152Z,38.80
2019-03-31T20:53:17.969Z,38.59
2019-03-31T20:55:51.584Z,38.16
2019-03-31T20:58:22.700Z,37.49
2019-03-31T21:00:55.633Z,37.23
2019-03-31T21:03:28.524Z,37.20
2019-03-31T21:06:02.801Z,37.18
2019-03-31T21:08:36.355Z,37.21
2019-03-31T21:11:14.677Z,37.46
2019-03-31T21:13:47.370Z,37.73
2019-03-31T21:16:19.074Z,37.96
2019-03-31T21:18:53.074Z,38.16
2019-03-31T21:21:27.240Z,38.53
2019-03-31T21:23:59.952Z,38.88
2019-03-31T21:26:35.171Z,39.27
2019-03-31T21:29:06.342Z,39.38
2019-03-31T21:31:42.901Z,39.70
2019-03-31T21:34:14.520Z,39.97
2019-03-31T21:36:47.052Z,40.10
2019-03-31T21:39:18.073Z,40.35
2019-03-31T21:41:52.241Z,40.63
2019-03-31T21:44:27.777Z,40.84
2019-03-31T21:46:58.821Z,40.86
2019-03-31T21:49:32.240Z,41.07
2019-03-31T21:52:06.566Z,41.32
2019-03-31T21:54:37.525Z,41.50
2019-03-31T21:57:08.655Z,41.79
2019-03-31T21:59:44.817Z,41.96
2019-03-31T22:02:17.364Z,42.06
2019-03-31T22:04:51.420Z,42.21
2019-03-31T22:07:22.703Z,42.47
2019-03-31T22:09:55.317Z,42.63
2019-03-31T22:12:26.280Z,42.74
2019-03-31T22:14:57.296Z,42.99
2019-03-31T22:17:28.275Z,43.31
2019-03-31T22:19:59.277Z,43.26
2019-03-31T22:22:30.257Z,43.33
2019-03-31T22:25:01.229Z,43.41
2019-03-31T22:27:36.013Z,43.60
2019-03-31T22:30:10.531Z,43.62
2019-03-31T22:32:42.422Z,43.50
2019-03-31T22:35:13.678Z,43.48
2019-03-31T22:37:46.264Z,43.41
2019-03-31T22:40:17.410Z,43.34
2019-03-31T22:42:48.467Z,43.12
2019-03-31T22:45:21.159Z,43.15
2019-03-31T22:47:52.160Z,43.21
2019-03-31T22:50:23.140Z,43.40
2019-03-31T22:52:54.828Z,43.53
2019-03-31T22:55:25.841Z,43.79
2019-03-31T22:57:56.751Z,43.78
2019-03-31T23:00:27.896Z,44.12
2019-03-31T23:02:58.808Z,44.25
2019-03-31T23:05:29.787Z,44.31
2019-03-31T23:08:00.947Z,45.44
2019-03-31T23:10:31.920Z,45.35
2019-03-31T23:13:02.830Z,45.75
2019-03-31T23:15:33.932Z,45.71
2019-03-31T23:18:04.887Z,45.56
2019-03-31T23:20:35.900Z,45.65
2019-03-31T23:23:06.844Z,46.10
2019-03-31T23:25:37.797Z,45.94
2019-03-31T23:28:08.810Z,46.00
2019-03-31T23:30:39.756Z,45.47
2019-03-31T23:33:11.557Z,45.95
2019-03-31T23:35:42.555Z,45.46
2019-03-31T23:38:13.842Z,45.32
2019-03-31T23:40:44.819Z,45.26
2019-03-31T23:43:15.743Z,45.52
2019-03-31T23:45:46.693Z,45.28
2019-03-31T23:48:17.624Z,45.64
2019-03-31T23:50:48.663Z,45.45
2019-03-31T23:53:19.662Z,45.38
2019-03-31T23:55:50.628Z,45.27
2019-03-31T23:58:21.545Z,45.05
